sensor_id;sensor_type;location;lat;lon;timestamp;P1;durP1;ratioP1;P2;durP2;ratioP2
17953;SDS011;9102;53.548;9.926;2023-06-26T00:33:56;13.13;;;9.43;;
17953;SDS011;9102;53.548;9.926;2023-06-26T01:04:05;13.68;;;10.48;;
17953;SDS011;9102;53.548;9.926;2023-06-26T01:12:57;12.60;;;10.32;;
17953;SDS011;9102;53.548;9.926;2023-06-26T01:27:16;11.90;;;10.50;;
17953;SDS011;9102;53.548;9.926;2023-06-26T01:40:33;12.50;;;10.50;;
17953;SDS011;9102;53.548;9.926;2023-06-26T01:49:15;14.10;;;9.65;;
17953;SDS011;9102;53.548;9.926;2023-06-26T01:52:16;13.93;;;9.32;;
17953;SDS011;9102;53.548;9.926;2023-06-26T02:00:23;11.85;;;10.65;;
17953;SDS011;9102;53.548;9.926;2023-06-26T02:02:53;11.75;;;10.50;;
17953;SDS011;9102;53.548;9.926;2023-06-26T02:05:30;11.20;;;10.05;;
17953;SDS011;9102;53.548;9.926;2023-06-26T02:10:30;12.30;;;10.63;;
17953;SDS011;9102;53.548;9.926;2023-06-26T02:16:17;11.60;;;10.48;;
17953;SDS011;9102;53.548;9.926;2023-06-26T02:18:46;12.82;;;10.88;;
17953;SDS011;9102;53.548;9.926;2023-06-26T02:21:36;11.82;;;10.10;;
17953;SDS011;9102;53.548;9.926;2023-06-26T02:24:16;13.68;;;10.80;;
17953;SDS011;9102;53.548;9.926;2023-06-26T02:26:45;12.80;;;10.52;;
17953;SDS011;9102;53.548;9.926;2023-06-26T02:29:14;11.70;;;10.52;;
17953;SDS011;9102;53.548;9.926;2023-06-26T02:34:25;11.98;;;10.77;;
17953;SDS011;9102;53.548;9.926;2023-06-26T02:42:21;13.32;;;10.85;;
17953;SDS011;9102;53.548;9.926;2023-06-26T03:09:05;12.35;;;10.45;;
17953;SDS011;9102;53.548;9.926;2023-06-26T03:12:12;12.85;;;11.10;;
17953;SDS011;9102;53.548;9.926;2023-06-26T04:33:37;12.20;;;10.13;;
17953;SDS011;9102;53.548;9.926;2023-06-26T04:36:06;11.30;;;9.98;;
17953;SDS011;9102;53.548;9.926;2023-06-26T04:39:12;12.25;;;11.05;;
17953;SDS011;9102;53.548;9.926;2023-06-26T04:58:03;12.85;;;10.27;;
17953;SDS011;9102;53.548;9.926;2023-06-26T05:03:12;11.52;;;10.13;;
17953;SDS011;9102;53.548;9.926;2023-06-26T05:16:48;13.35;;;10.32;;
17953;SDS011;9102;53.548;9.926;2023-06-26T05:27:00;11.60;;;8.95;;
17953;SDS011;9102;53.548;9.926;2023-06-26T05:29:29;14.70;;;9.07;;
17953;SDS011;9102;53.548;9.926;2023-06-26T05:31:57;11.32;;;8.50;;
17953;SDS011;9102;53.548;9.926;2023-06-26T05:34:25;12.32;;;9.77;;
17953;SDS011;9102;53.548;9.926;2023-06-26T05:36:55;14.73;;;8.38;;
17953;SDS011;9102;53.548;9.926;2023-06-26T05:39:25;10.65;;;8.00;;
17953;SDS011;9102;53.548;9.926;2023-06-26T05:41:52;13.35;;;8.50;;
17953;SDS011;9102;53.548;9.926;2023-06-26T05:44:19;13.27;;;8.38;;
17953;SDS011;9102;53.548;9.926;2023-06-26T05:46:47;10.52;;;8.20;;
17953;SDS011;9102;53.548;9.926;2023-06-26T05:49:14;12.35;;;8.50;;
17953;SDS011;9102;53.548;9.926;2023-06-26T05:51:41;14.75;;;8.18;;
17953;SDS011;9102;53.548;9.926;2023-06-26T05:54:09;12.05;;;8.40;;
17953;SDS011;9102;53.548;9.926;2023-06-26T05:56:38;12.07;;;8.50;;
17953;SDS011;9102;53.548;9.926;2023-06-26T05:59:06;12.30;;;8.68;;
17953;SDS011;9102;53.548;9.926;2023-06-26T06:01:35;10.40;;;8.07;;
17953;SDS011;9102;53.548;9.926;2023-06-26T06:04:04;10.63;;;8.45;;
17953;SDS011;9102;53.548;9.926;2023-06-26T06:06:31;9.23;;;7.88;;
17953;SDS011;9102;53.548;9.926;2023-06-26T06:08:57;9.32;;;7.43;;
17953;SDS011;9102;53.548;9.926;2023-06-26T06:11:24;11.55;;;7.55;;
17953;SDS011;9102;53.548;9.926;2023-06-26T06:13:51;13.20;;;9.27;;
17953;SDS011;9102;53.548;9.926;2023-06-26T06:16:18;10.40;;;7.50;;
17953;SDS011;9102;53.548;9.926;2023-06-26T06:18:45;8.15;;;6.95;;
17953;SDS011;9102;53.548;9.926;2023-06-26T06:21:13;15.68;;;9.80;;
17953;SDS011;9102;53.548;9.926;2023-06-26T06:23:40;14.50;;;7.70;;
17953;SDS011;9102;53.548;9.926;2023-06-26T06:26:06;8.85;;;7.25;;
17953;SDS011;9102;53.548;9.926;2023-06-26T06:28:33;11.40;;;7.72;;
17953;SDS011;9102;53.548;9.926;2023-06-26T06:31:00;10.60;;;7.63;;
17953;SDS011;9102;53.548;9.926;2023-06-26T06:33:27;12.88;;;8.43;;
17953;SDS011;9102;53.548;9.926;2023-06-26T06:35:54;10.38;;;7.95;;
17953;SDS011;9102;53.548;9.926;2023-06-26T06:38:22;11.02;;;8.38;;
17953;SDS011;9102;53.548;9.926;2023-06-26T06:40:49;17.95;;;9.40;;
17953;SDS011;9102;53.548;9.926;2023-06-26T06:43:16;15.25;;;9.15;;
17953;SDS011;9102;53.548;9.926;2023-06-26T06:45:43;10.80;;;8.23;;
17953;SDS011;9102;53.548;9.926;2023-06-26T06:48:10;13.13;;;8.20;;
17953;SDS011;9102;53.548;9.926;2023-06-26T06:50:37;11.30;;;8.20;;
17953;SDS011;9102;53.548;9.926;2023-06-26T06:53:04;11.38;;;8.10;;
17953;SDS011;9102;53.548;9.926;2023-06-26T06:55:32;11.43;;;8.23;;
17953;SDS011;9102;53.548;9.926;2023-06-26T06:57:59;11.52;;;8.57;;
17953;SDS011;9102;53.548;9.926;2023-06-26T07:00:26;8.25;;;7.10;;
17953;SDS011;9102;53.548;9.926;2023-06-26T07:02:52;11.95;;;7.20;;
17953;SDS011;9102;53.548;9.926;2023-06-26T07:05:21;11.23;;;7.70;;
17953;SDS011;9102;53.548;9.926;2023-06-26T07:07:48;13.40;;;7.78;;
17953;SDS011;9102;53.548;9.926;2023-06-26T07:10:15;10.55;;;6.82;;
17953;SDS011;9102;53.548;9.926;2023-06-26T07:12:43;8.70;;;6.70;;
17953;SDS011;9102;53.548;9.926;2023-06-26T07:15:10;14.05;;;8.30;;
17953;SDS011;9102;53.548;9.926;2023-06-26T07:17:37;12.88;;;7.88;;
17953;SDS011;9102;53.548;9.926;2023-06-26T07:20:07;10.73;;;7.60;;
17953;SDS011;9102;53.548;9.926;2023-06-26T07:22:35;10.20;;;7.20;;
17953;SDS011;9102;53.548;9.926;2023-06-26T07:25:02;8.35;;;6.75;;
17953;SDS011;9102;53.548;9.926;2023-06-26T07:27:29;10.60;;;6.90;;
17953;SDS011;9102;53.548;9.926;2023-06-26T07:29:59;10.45;;;6.60;;
17953;SDS011;9102;53.548;9.926;2023-06-26T07:32:26;9.30;;;6.30;;
17953;SDS011;9102;53.548;9.926;2023-06-26T07:34:53;9.00;;;6.88;;
17953;SDS011;9102;53.548;9.926;2023-06-26T07:37:20;9.27;;;7.13;;
17953;SDS011;9102;53.548;9.926;2023-06-26T07:39:47;14.52;;;6.97;;
17953;SDS011;9102;53.548;9.926;2023-06-26T07:42:14;7.72;;;6.43;;
17953;SDS011;9102;53.548;9.926;2023-06-26T07:44:41;7.80;;;6.60;;
17953;SDS011;9102;53.548;9.926;2023-06-26T07:47:09;10.68;;;6.93;;
17953;SDS011;9102;53.548;9.926;2023-06-26T07:49:36;8.80;;;6.35;;
17953;SDS011;9102;53.548;9.926;2023-06-26T07:52:04;10.15;;;6.10;;
17953;SDS011;9102;53.548;9.926;2023-06-26T07:54:31;8.57;;;6.43;;
17953;SDS011;9102;53.548;9.926;2023-06-26T07:56:59;9.50;;;6.45;;
17953;SDS011;9102;53.548;9.926;2023-06-26T07:59:28;7.05;;;6.28;;
17953;SDS011;9102;53.548;9.926;2023-06-26T08:01:56;8.38;;;5.82;;
17953;SDS011;9102;53.548;9.926;2023-06-26T08:04:26;7.60;;;6.20;;
17953;SDS011;9102;53.548;9.926;2023-06-26T08:06:56;7.18;;;5.38;;
17953;SDS011;9102;53.548;9.926;2023-06-26T08:09:23;12.15;;;6.15;;
17953;SDS011;9102;53.548;9.926;2023-06-26T08:11:51;7.60;;;5.85;;
17953;SDS011;9102;53.548;9.926;2023-06-26T08:14:18;7.90;;;6.97;;
17953;SDS011;9102;53.548;9.926;2023-06-26T08:16:46;9.82;;;6.53;;
17953;SDS011;9102;53.548;9.926;2023-06-26T08:19:14;9.75;;;5.80;;
17953;SDS011;9102;53.548;9.926;2023-06-26T08:21:43;7.40;;;6.00;;
17953;SDS011;9102;53.548;9.926;2023-06-26T08:24:10;7.90;;;6.00;;
17953;SDS011;9102;53.548;9.926;2023-06-26T08:26:38;10.25;;;5.78;;
17953;SDS011;9102;53.548;9.926;2023-06-26T08:29:07;7.95;;;6.07;;
17953;SDS011;9102;53.548;9.926;2023-06-26T08:31:34;9.60;;;6.40;;
17953;SDS011;9102;53.548;9.926;2023-06-26T08:34:01;8.32;;;5.68;;
17953;SDS011;9102;53.548;9.926;2023-06-26T08:36:28;6.18;;;5.22;;
17953;SDS011;9102;53.548;9.926;2023-06-26T08:38:57;7.93;;;5.88;;
17953;SDS011;9102;53.548;9.926;2023-06-26T08:41:26;9.00;;;6.18;;
17953;SDS011;9102;53.548;9.926;2023-06-26T08:43:53;8.48;;;5.63;;
17953;SDS011;9102;53.548;9.926;2023-06-26T08:46:21;7.32;;;6.15;;
17953;SDS011;9102;53.548;9.926;2023-06-26T08:48:48;7.05;;;6.13;;
17953;SDS011;9102;53.548;9.926;2023-06-26T08:51:20;9.27;;;6.75;;
17953;SDS011;9102;53.548;9.926;2023-06-26T08:53:51;7.78;;;6.30;;
17953;SDS011;9102;53.548;9.926;2023-06-26T08:56:24;7.60;;;6.25;;
17953;SDS011;9102;53.548;9.926;2023-06-26T08:58:54;6.95;;;5.97;;
17953;SDS011;9102;53.548;9.926;2023-06-26T09:01:21;7.38;;;6.32;;
17953;SDS011;9102;53.548;9.926;2023-06-26T09:03:49;8.27;;;6.65;;
17953;SDS011;9102;53.548;9.926;2023-06-26T09:06:17;8.45;;;6.03;;
17953;SDS011;9102;53.548;9.926;2023-06-26T09:08:44;11.65;;;7.25;;
17953;SDS011;9102;53.548;9.926;2023-06-26T09:11:11;11.65;;;6.70;;
17953;SDS011;9102;53.548;9.926;2023-06-26T09:13:39;13.23;;;7.60;;
17953;SDS011;9102;53.548;9.926;2023-06-26T09:16:06;9.05;;;7.82;;
17953;SDS011;9102;53.548;9.926;2023-06-26T09:18:34;10.25;;;8.23;;
17953;SDS011;9102;53.548;9.926;2023-06-26T09:21:04;10.27;;;7.93;;
17953;SDS011;9102;53.548;9.926;2023-06-26T09:23:33;10.38;;;8.68;;
17953;SDS011;9102;53.548;9.926;2023-06-26T09:26:01;9.48;;;7.63;;
17953;SDS011;9102;53.548;9.926;2023-06-26T09:28:29;10.15;;;7.68;;
17953;SDS011;9102;53.548;9.926;2023-06-26T09:31:02;13.00;;;8.57;;
17953;SDS011;9102;53.548;9.926;2023-06-26T09:33:33;10.82;;;8.48;;
17953;SDS011;9102;53.548;9.926;2023-06-26T09:36:02;9.05;;;7.10;;
17953;SDS011;9102;53.548;9.926;2023-06-26T09:38:32;10.07;;;7.63;;
17953;SDS011;9102;53.548;9.926;2023-06-26T09:41:00;10.15;;;7.88;;
17953;SDS011;9102;53.548;9.926;2023-06-26T09:43:27;12.18;;;8.07;;
17953;SDS011;9102;53.548;9.926;2023-06-26T09:45:53;15.25;;;8.02;;
17953;SDS011;9102;53.548;9.926;2023-06-26T09:48:22;11.95;;;8.05;;
17953;SDS011;9102;53.548;9.926;2023-06-26T09:50:49;13.82;;;8.50;;
17953;SDS011;9102;53.548;9.926;2023-06-26T09:53:16;13.63;;;9.20;;
17953;SDS011;9102;53.548;9.926;2023-06-26T09:55:43;11.43;;;9.23;;
17953;SDS011;9102;53.548;9.926;2023-06-26T09:58:12;13.48;;;8.93;;
17953;SDS011;9102;53.548;9.926;2023-06-26T10:00:40;17.73;;;10.73;;
17953;SDS011;9102;53.548;9.926;2023-06-26T10:03:07;12.70;;;10.23;;
17953;SDS011;9102;53.548;9.926;2023-06-26T10:05:36;15.63;;;10.85;;
17953;SDS011;9102;53.548;9.926;2023-06-26T10:08:04;21.35;;;11.30;;
17953;SDS011;9102;53.548;9.926;2023-06-26T10:10:32;20.60;;;11.98;;
17953;SDS011;9102;53.548;9.926;2023-06-26T10:13:02;19.83;;;11.45;;
17953;SDS011;9102;53.548;9.926;2023-06-26T10:15:34;12.65;;;10.65;;
17953;SDS011;9102;53.548;9.926;2023-06-26T10:18:02;18.73;;;11.68;;
17953;SDS011;9102;53.548;9.926;2023-06-26T10:20:30;15.00;;;11.02;;
17953;SDS011;9102;53.548;9.926;2023-06-26T10:22:59;14.88;;;10.02;;
17953;SDS011;9102;53.548;9.926;2023-06-26T10:25:28;22.20;;;11.65;;
17953;SDS011;9102;53.548;9.926;2023-06-26T10:27:58;19.20;;;10.15;;
17953;SDS011;9102;53.548;9.926;2023-06-26T10:30:36;16.02;;;9.88;;
17953;SDS011;9102;53.548;9.926;2023-06-26T10:33:05;11.77;;;8.73;;
17953;SDS011;9102;53.548;9.926;2023-06-26T10:35:32;13.45;;;9.15;;
17953;SDS011;9102;53.548;9.926;2023-06-26T10:38:01;14.10;;;8.88;;
17953;SDS011;9102;53.548;9.926;2023-06-26T10:40:39;11.93;;;8.65;;
17953;SDS011;9102;53.548;9.926;2023-06-26T10:43:07;12.35;;;8.00;;
17953;SDS011;9102;53.548;9.926;2023-06-26T10:45:38;11.25;;;7.60;;
17953;SDS011;9102;53.548;9.926;2023-06-26T10:48:10;10.55;;;8.38;;
17953;SDS011;9102;53.548;9.926;2023-06-26T10:50:39;9.27;;;7.43;;
17953;SDS011;9102;53.548;9.926;2023-06-26T10:53:23;11.23;;;8.80;;
17953;SDS011;9102;53.548;9.926;2023-06-26T10:55:54;14.65;;;9.27;;
17953;SDS011;9102;53.548;9.926;2023-06-26T10:58:31;10.48;;;8.45;;
17953;SDS011;9102;53.548;9.926;2023-06-26T11:01:18;14.13;;;10.05;;
17953;SDS011;9102;53.548;9.926;2023-06-26T11:03:47;15.05;;;8.65;;
17953;SDS011;9102;53.548;9.926;2023-06-26T11:06:27;12.15;;;9.07;;
17953;SDS011;9102;53.548;9.926;2023-06-26T11:09:00;15.32;;;8.57;;
17953;SDS011;9102;53.548;9.926;2023-06-26T11:14:27;13.60;;;8.10;;
17953;SDS011;9102;53.548;9.926;2023-06-26T11:16:54;13.88;;;7.70;;
17953;SDS011;9102;53.548;9.926;2023-06-26T11:19:23;15.88;;;7.10;;
17953;SDS011;9102;53.548;9.926;2023-06-26T11:21:57;14.75;;;6.70;;
17953;SDS011;9102;53.548;9.926;2023-06-26T11:24:26;14.40;;;6.40;;
17953;SDS011;9102;53.548;9.926;2023-06-26T11:26:59;20.02;;;6.40;;
17953;SDS011;9102;53.548;9.926;2023-06-26T11:29:28;12.45;;;6.35;;
17953;SDS011;9102;53.548;9.926;2023-06-26T11:31:59;18.17;;;5.90;;
17953;SDS011;9102;53.548;9.926;2023-06-26T11:34:32;9.32;;;5.07;;
17953;SDS011;9102;53.548;9.926;2023-06-26T11:36:59;13.27;;;5.10;;
17953;SDS011;9102;53.548;9.926;2023-06-26T11:39:31;14.98;;;4.82;;
17953;SDS011;9102;53.548;9.926;2023-06-26T11:41:59;8.25;;;4.38;;
17953;SDS011;9102;53.548;9.926;2023-06-26T11:44:29;8.35;;;4.18;;
17953;SDS011;9102;53.548;9.926;2023-06-26T11:46:56;10.10;;;3.83;;
17953;SDS011;9102;53.548;9.926;2023-06-26T11:49:23;8.30;;;3.72;;
17953;SDS011;9102;53.548;9.926;2023-06-26T11:51:51;10.73;;;3.22;;
17953;SDS011;9102;53.548;9.926;2023-06-26T11:54:23;12.20;;;3.50;;
17953;SDS011;9102;53.548;9.926;2023-06-26T11:56:55;13.57;;;2.67;;
17953;SDS011;9102;53.548;9.926;2023-06-26T11:59:23;9.82;;;2.95;;
17953;SDS011;9102;53.548;9.926;2023-06-26T12:01:59;6.85;;;2.85;;
17953;SDS011;9102;53.548;9.926;2023-06-26T12:04:26;8.35;;;2.42;;
17953;SDS011;9102;53.548;9.926;2023-06-26T12:06:55;7.50;;;2.80;;
17953;SDS011;9102;53.548;9.926;2023-06-26T12:09:23;7.10;;;2.10;;
17953;SDS011;9102;53.548;9.926;2023-06-26T12:11:51;7.30;;;2.30;;
17953;SDS011;9102;53.548;9.926;2023-06-26T12:14:21;8.50;;;2.28;;
17953;SDS011;9102;53.548;9.926;2023-06-26T12:16:49;9.30;;;2.55;;
17953;SDS011;9102;53.548;9.926;2023-06-26T12:19:23;9.80;;;2.30;;
17953;SDS011;9102;53.548;9.926;2023-06-26T12:21:51;8.48;;;2.38;;
17953;SDS011;9102;53.548;9.926;2023-06-26T12:24:19;9.60;;;3.13;;
17953;SDS011;9102;53.548;9.926;2023-06-26T12:26:49;10.00;;;2.42;;
17953;SDS011;9102;53.548;9.926;2023-06-26T12:29:18;9.80;;;2.55;;
17953;SDS011;9102;53.548;9.926;2023-06-26T12:31:49;9.55;;;2.40;;
17953;SDS011;9102;53.548;9.926;2023-06-26T12:34:18;10.52;;;2.30;;
17953;SDS011;9102;53.548;9.926;2023-06-26T12:36:46;11.52;;;2.85;;
17953;SDS011;9102;53.548;9.926;2023-06-26T12:39:15;8.90;;;2.42;;
17953;SDS011;9102;53.548;9.926;2023-06-26T12:41:46;9.10;;;2.67;;
17953;SDS011;9102;53.548;9.926;2023-06-26T12:44:17;8.00;;;2.53;;
17953;SDS011;9102;53.548;9.926;2023-06-26T12:46:47;6.00;;;1.83;;
17953;SDS011;9102;53.548;9.926;2023-06-26T12:49:15;10.18;;;2.15;;
17953;SDS011;9102;53.548;9.926;2023-06-26T12:51:43;7.15;;;2.08;;
17953;SDS011;9102;53.548;9.926;2023-06-26T12:54:11;7.25;;;2.20;;
17953;SDS011;9102;53.548;9.926;2023-06-26T12:56:37;6.72;;;2.05;;
17953;SDS011;9102;53.548;9.926;2023-06-26T12:59:04;4.55;;;1.60;;
17953;SDS011;9102;53.548;9.926;2023-06-26T13:01:31;8.85;;;2.00;;
17953;SDS011;9102;53.548;9.926;2023-06-26T13:04:01;7.30;;;2.10;;
17953;SDS011;9102;53.548;9.926;2023-06-26T13:06:29;4.97;;;1.73;;
17953;SDS011;9102;53.548;9.926;2023-06-26T13:08:55;7.00;;;1.70;;
17953;SDS011;9102;53.548;9.926;2023-06-26T13:11:23;8.65;;;2.28;;
17953;SDS011;9102;53.548;9.926;2023-06-26T13:13:50;6.10;;;1.80;;
17953;SDS011;9102;53.548;9.926;2023-06-26T13:16:17;5.15;;;1.60;;
17953;SDS011;9102;53.548;9.926;2023-06-26T13:18:44;6.28;;;1.83;;
17953;SDS011;9102;53.548;9.926;2023-06-26T13:21:13;5.90;;;2.05;;
17953;SDS011;9102;53.548;9.926;2023-06-26T13:23:41;6.70;;;1.80;;
17953;SDS011;9102;53.548;9.926;2023-06-26T13:26:08;5.35;;;1.60;;
17953;SDS011;9102;53.548;9.926;2023-06-26T13:28:35;4.72;;;1.40;;
17953;SDS011;9102;53.548;9.926;2023-06-26T13:31:02;6.28;;;1.70;;
17953;SDS011;9102;53.548;9.926;2023-06-26T13:33:29;3.85;;;2.03;;
17953;SDS011;9102;53.548;9.926;2023-06-26T13:35:56;11.20;;;1.95;;
17953;SDS011;9102;53.548;9.926;2023-06-26T13:38:25;7.72;;;1.63;;
17953;SDS011;9102;53.548;9.926;2023-06-26T13:40:52;8.70;;;1.58;;
17953;SDS011;9102;53.548;9.926;2023-06-26T13:43:20;5.15;;;1.60;;
17953;SDS011;9102;53.548;9.926;2023-06-26T13:45:47;6.10;;;1.90;;
17953;SDS011;9102;53.548;9.926;2023-06-26T13:48:15;4.10;;;1.70;;
17953;SDS011;9102;53.548;9.926;2023-06-26T13:50:42;3.72;;;1.23;;
17953;SDS011;9102;53.548;9.926;2023-06-26T13:53:09;4.55;;;1.40;;
17953;SDS011;9102;53.548;9.926;2023-06-26T13:55:38;3.20;;;1.58;;
17953;SDS011;9102;53.548;9.926;2023-06-26T13:58:04;3.30;;;1.60;;
17953;SDS011;9102;53.548;9.926;2023-06-26T14:00:31;3.85;;;1.40;;
17953;SDS011;9102;53.548;9.926;2023-06-26T14:02:59;3.58;;;1.60;;
17953;SDS011;9102;53.548;9.926;2023-06-26T14:05:28;7.53;;;1.88;;
17953;SDS011;9102;53.548;9.926;2023-06-26T14:07:54;5.57;;;1.48;;
17953;SDS011;9102;53.548;9.926;2023-06-26T14:10:21;6.85;;;1.60;;
17953;SDS011;9102;53.548;9.926;2023-06-26T14:12:53;3.95;;;1.25;;
17953;SDS011;9102;53.548;9.926;2023-06-26T14:15:23;6.70;;;1.73;;
17953;SDS011;9102;53.548;9.926;2023-06-26T14:17:50;6.07;;;1.45;;
17953;SDS011;9102;53.548;9.926;2023-06-26T14:20:20;6.85;;;1.60;;
17953;SDS011;9102;53.548;9.926;2023-06-26T14:22:50;4.18;;;1.48;;
17953;SDS011;9102;53.548;9.926;2023-06-26T14:25:20;5.10;;;1.17;;
17953;SDS011;9102;53.548;9.926;2023-06-26T14:27:50;6.93;;;1.35;;
17953;SDS011;9102;53.548;9.926;2023-06-26T14:30:21;4.22;;;1.50;;
17953;SDS011;9102;53.548;9.926;2023-06-26T14:32:56;6.07;;;1.40;;
17953;SDS011;9102;53.548;9.926;2023-06-26T14:35:23;2.85;;;1.38;;
17953;SDS011;9102;53.548;9.926;2023-06-26T14:37:50;4.07;;;1.50;;
17953;SDS011;9102;53.548;9.926;2023-06-26T14:40:17;3.15;;;1.30;;
17953;SDS011;9102;53.548;9.926;2023-06-26T14:42:44;3.25;;;1.45;;
17953;SDS011;9102;53.548;9.926;2023-06-26T14:45:11;3.58;;;1.50;;
17953;SDS011;9102;53.548;9.926;2023-06-26T14:47:42;4.28;;;1.30;;
17953;SDS011;9102;53.548;9.926;2023-06-26T14:50:12;2.75;;;1.40;;
17953;SDS011;9102;53.548;9.926;2023-06-26T14:52:38;2.92;;;1.10;;
17953;SDS011;9102;53.548;9.926;2023-06-26T14:55:05;2.85;;;1.10;;
17953;SDS011;9102;53.548;9.926;2023-06-26T14:57:39;2.72;;;1.02;;
17953;SDS011;9102;53.548;9.926;2023-06-26T15:00:13;4.18;;;0.93;;
17953;SDS011;9102;53.548;9.926;2023-06-26T15:02:48;3.42;;;1.15;;
17953;SDS011;9102;53.548;9.926;2023-06-26T15:05:18;3.80;;;1.27;;
17953;SDS011;9102;53.548;9.926;2023-06-26T15:07:46;1.42;;;0.82;;
17953;SDS011;9102;53.548;9.926;2023-06-26T15:10:12;3.78;;;1.38;;
17953;SDS011;9102;53.548;9.926;2023-06-26T15:12:42;4.05;;;0.88;;
17953;SDS011;9102;53.548;9.926;2023-06-26T15:15:13;5.20;;;1.40;;
17953;SDS011;9102;53.548;9.926;2023-06-26T15:17:42;4.47;;;1.10;;
17953;SDS011;9102;53.548;9.926;2023-06-26T15:20:19;3.58;;;1.23;;
17953;SDS011;9102;53.548;9.926;2023-06-26T15:22:50;4.60;;;1.45;;
17953;SDS011;9102;53.548;9.926;2023-06-26T15:25:19;5.25;;;1.40;;
17953;SDS011;9102;53.548;9.926;2023-06-26T15:27:53;4.72;;;1.30;;
17953;SDS011;9102;53.548;9.926;2023-06-26T15:30:20;6.28;;;1.50;;
17953;SDS011;9102;53.548;9.926;2023-06-26T15:32:47;6.55;;;1.70;;
17953;SDS011;9102;53.548;9.926;2023-06-26T15:35:16;5.75;;;1.15;;
17953;SDS011;9102;53.548;9.926;2023-06-26T15:37:47;2.67;;;1.30;;
17953;SDS011;9102;53.548;9.926;2023-06-26T15:40:15;4.35;;;1.23;;
17953;SDS011;9102;53.548;9.926;2023-06-26T15:42:45;6.68;;;1.20;;
17953;SDS011;9102;53.548;9.926;2023-06-26T15:45:15;3.20;;;0.93;;
17953;SDS011;9102;53.548;9.926;2023-06-26T15:47:48;2.05;;;0.80;;
17953;SDS011;9102;53.548;9.926;2023-06-26T15:50:15;3.33;;;1.25;;
17953;SDS011;9102;53.548;9.926;2023-06-26T15:52:42;3.25;;;1.17;;
17953;SDS011;9102;53.548;9.926;2023-06-26T15:55:12;5.53;;;1.45;;
17953;SDS011;9102;53.548;9.926;2023-06-26T15:57:39;3.78;;;1.02;;
17953;SDS011;9102;53.548;9.926;2023-06-26T16:00:06;2.92;;;1.20;;
17953;SDS011;9102;53.548;9.926;2023-06-26T16:02:34;4.95;;;1.50;;
17953;SDS011;9102;53.548;9.926;2023-06-26T16:05:02;4.70;;;1.23;;
17953;SDS011;9102;53.548;9.926;2023-06-26T16:07:31;4.53;;;1.15;;
17953;SDS011;9102;53.548;9.926;2023-06-26T16:09:58;3.15;;;1.40;;
17953;SDS011;9102;53.548;9.926;2023-06-26T16:12:26;7.95;;;1.30;;
17953;SDS011;9102;53.548;9.926;2023-06-26T16:14:53;9.30;;;1.75;;
17953;SDS011;9102;53.548;9.926;2023-06-26T16:17:20;4.85;;;1.33;;
17953;SDS011;9102;53.548;9.926;2023-06-26T16:19:48;4.30;;;1.25;;
17953;SDS011;9102;53.548;9.926;2023-06-26T16:22:16;4.57;;;1.20;;
17953;SDS011;9102;53.548;9.926;2023-06-26T16:24:45;6.88;;;1.40;;
17953;SDS011;9102;53.548;9.926;2023-06-26T16:27:13;5.35;;;1.15;;
17953;SDS011;9102;53.548;9.926;2023-06-26T16:29:41;6.22;;;2.03;;
17953;SDS011;9102;53.548;9.926;2023-06-26T16:32:08;3.72;;;1.13;;
17953;SDS011;9102;53.548;9.926;2023-06-26T16:34:36;4.30;;;1.60;;
17953;SDS011;9102;53.548;9.926;2023-06-26T16:37:03;4.28;;;1.67;;
17953;SDS011;9102;53.548;9.926;2023-06-26T16:39:33;4.90;;;1.25;;
17953;SDS011;9102;53.548;9.926;2023-06-26T16:42:00;5.40;;;1.42;;
17953;SDS011;9102;53.548;9.926;2023-06-26T16:44:30;5.72;;;1.63;;
17953;SDS011;9102;53.548;9.926;2023-06-26T16:46:58;4.22;;;1.30;;
17953;SDS011;9102;53.548;9.926;2023-06-26T16:49:26;4.20;;;1.70;;
17953;SDS011;9102;53.548;9.926;2023-06-26T16:51:57;4.07;;;1.38;;
17953;SDS011;9102;53.548;9.926;2023-06-26T16:54:25;5.20;;;1.40;;
17953;SDS011;9102;53.548;9.926;2023-06-26T16:56:55;4.70;;;1.58;;
17953;SDS011;9102;53.548;9.926;2023-06-26T16:59:24;4.60;;;1.48;;
17953;SDS011;9102;53.548;9.926;2023-06-26T17:01:51;5.85;;;1.65;;
17953;SDS011;9102;53.548;9.926;2023-06-26T17:04:21;6.25;;;1.65;;
17953;SDS011;9102;53.548;9.926;2023-06-26T17:06:49;6.50;;;2.00;;
17953;SDS011;9102;53.548;9.926;2023-06-26T17:09:17;4.85;;;1.77;;
17953;SDS011;9102;53.548;9.926;2023-06-26T17:11:44;8.50;;;1.90;;
17953;SDS011;9102;53.548;9.926;2023-06-26T17:14:12;5.85;;;1.88;;
17953;SDS011;9102;53.548;9.926;2023-06-26T17:16:39;7.20;;;1.95;;
17953;SDS011;9102;53.548;9.926;2023-06-26T17:19:10;5.15;;;1.80;;
17953;SDS011;9102;53.548;9.926;2023-06-26T17:21:39;7.78;;;1.70;;
17953;SDS011;9102;53.548;9.926;2023-06-26T17:24:06;4.30;;;1.73;;
17953;SDS011;9102;53.548;9.926;2023-06-26T17:26:32;7.50;;;1.90;;
17953;SDS011;9102;53.548;9.926;2023-06-26T17:28:59;7.53;;;1.98;;
17953;SDS011;9102;53.548;9.926;2023-06-26T17:31:26;11.05;;;3.13;;
17953;SDS011;9102;53.548;9.926;2023-06-26T17:33:56;8.75;;;2.50;;
17953;SDS011;9102;53.548;9.926;2023-06-26T17:36:24;8.57;;;1.85;;
17953;SDS011;9102;53.548;9.926;2023-06-26T17:38:52;7.95;;;1.70;;
17953;SDS011;9102;53.548;9.926;2023-06-26T17:41:19;4.75;;;1.70;;
17953;SDS011;9102;53.548;9.926;2023-06-26T17:43:46;7.25;;;2.10;;
17953;SDS011;9102;53.548;9.926;2023-06-26T17:46:13;11.07;;;2.33;;
17953;SDS011;9102;53.548;9.926;2023-06-26T17:48:43;5.35;;;1.85;;
17953;SDS011;9102;53.548;9.926;2023-06-26T17:51:10;8.10;;;1.90;;
17953;SDS011;9102;53.548;9.926;2023-06-26T17:53:37;8.55;;;2.00;;
17953;SDS011;9102;53.548;9.926;2023-06-26T17:56:06;6.53;;;2.10;;
17953;SDS011;9102;53.548;9.926;2023-06-26T17:58:36;8.50;;;2.10;;
17953;SDS011;9102;53.548;9.926;2023-06-26T18:01:02;9.18;;;3.28;;
17953;SDS011;9102;53.548;9.926;2023-06-26T18:03:29;7.82;;;2.00;;
17953;SDS011;9102;53.548;9.926;2023-06-26T18:05:56;6.90;;;2.15;;
17953;SDS011;9102;53.548;9.926;2023-06-26T18:08:23;7.90;;;2.05;;
17953;SDS011;9102;53.548;9.926;2023-06-26T18:10:50;8.73;;;2.10;;
17953;SDS011;9102;53.548;9.926;2023-06-26T18:13:18;8.05;;;2.05;;
17953;SDS011;9102;53.548;9.926;2023-06-26T18:15:45;7.22;;;2.20;;
17953;SDS011;9102;53.548;9.926;2023-06-26T18:18:11;10.90;;;2.22;;
17953;SDS011;9102;53.548;9.926;2023-06-26T18:20:40;12.43;;;2.35;;
17953;SDS011;9102;53.548;9.926;2023-06-26T18:23:06;11.05;;;2.20;;
17953;SDS011;9102;53.548;9.926;2023-06-26T18:25:34;7.15;;;1.90;;
17953;SDS011;9102;53.548;9.926;2023-06-26T18:28:01;7.00;;;1.95;;
17953;SDS011;9102;53.548;9.926;2023-06-26T18:30:29;6.35;;;1.70;;
17953;SDS011;9102;53.548;9.926;2023-06-26T18:32:56;9.68;;;2.13;;
17953;SDS011;9102;53.548;9.926;2023-06-26T18:35:24;8.70;;;1.80;;
17953;SDS011;9102;53.548;9.926;2023-06-26T18:37:50;10.30;;;2.17;;
17953;SDS011;9102;53.548;9.926;2023-06-26T18:40:17;9.13;;;2.33;;
17953;SDS011;9102;53.548;9.926;2023-06-26T18:42:44;8.88;;;1.90;;
17953;SDS011;9102;53.548;9.926;2023-06-26T18:45:11;10.25;;;2.65;;
17953;SDS011;9102;53.548;9.926;2023-06-26T18:47:40;9.25;;;1.95;;
17953;SDS011;9102;53.548;9.926;2023-06-26T18:50:08;10.25;;;2.42;;
17953;SDS011;9102;53.548;9.926;2023-06-26T18:52:34;10.35;;;2.40;;
17953;SDS011;9102;53.548;9.926;2023-06-26T18:55:01;7.05;;;1.70;;
17953;SDS011;9102;53.548;9.926;2023-06-26T18:57:29;7.93;;;1.83;;
17953;SDS011;9102;53.548;9.926;2023-06-26T18:59:57;8.32;;;2.10;;
17953;SDS011;9102;53.548;9.926;2023-06-26T19:02:24;11.45;;;3.22;;
17953;SDS011;9102;53.548;9.926;2023-06-26T19:04:52;6.80;;;1.92;;
17953;SDS011;9102;53.548;9.926;2023-06-26T19:07:19;8.60;;;1.75;;
17953;SDS011;9102;53.548;9.926;2023-06-26T19:09:46;7.15;;;2.42;;
17953;SDS011;9102;53.548;9.926;2023-06-26T19:12:13;9.60;;;1.75;;
17953;SDS011;9102;53.548;9.926;2023-06-26T19:14:40;7.57;;;2.00;;
17953;SDS011;9102;53.548;9.926;2023-06-26T19:17:08;10.32;;;1.98;;
17953;SDS011;9102;53.548;9.926;2023-06-26T19:19:34;10.73;;;2.95;;
17953;SDS011;9102;53.548;9.926;2023-06-26T19:22:03;12.40;;;2.35;;
17953;SDS011;9102;53.548;9.926;2023-06-26T19:24:30;11.65;;;2.42;;